Buffalo, WY

1:39 PM MDT on October 25, 2014 (GMT -0600)
Johnson County | Change Station
CLOSE
Current Station
Airport
Location: Buffalo,
Elevation: 4967 ft
Nearby Weather Stations

Elev 4967 ft 44.38 °N, 106.72 °W | Updated 46 minutes ago

Clear
Clear
77 °F
Feels Like 77 °F
N
14
Wind Variable Wind from SSE

Today
High -- | Low -- °F
--% Chance of Precip.
Yesterday
High -- | Low -- °F
Precip. -- in
7:34 AM 6:06 PM
Waxing Crescent, 4% visible
Pressure 29.91 in
Visibility 10.0 miles
Clouds Clear
Dew Point 21 °F
Humidity 12%
Rainfall 0.00 in
Snow Depth Not available.
UV 4 out of 12
Pollen 1.70 out of 12
Air Quality Not available.
Flu Activity Sporadic
METAR KBYG 251853Z AUTO 16012KT 10SM CLR 25/M06 A3001 RMK AO2 SLP126 T02501061

More Conditions Fewer Conditions

Pressure 29.91 in
Visibility 10.0 miles
Clouds Clear
Dew Point 21 °F
Humidity 12%
Rainfall 0.00 in
Snow Depth Not available.
UV 4 out of 12
Pollen 1.70 out of 12
Air Quality Not available.
Flu Activity Sporadic
METAR KBYG 251853Z AUTO 16012KT 10SM CLR 25/M06 A3001 RMK AO2 SLP126 T02501061

More Conditions Fewer Conditions

10-Day Weather Forecast

Almanac

Astronomy

Oct. 25, 2014 Rise Set
Actual Time 7:34 AM MDT 6:06 PM MDT
Civil Twilight 7:04 AM MDT 6:36 PM MDT
Nautical Twilight 6:31 AM MDT 7:10 PM MDT
Astronomical Twilight 5:57 AM MDT 7:43 PM MDT
Moon 9:19 AM MDT 7:28 PM MDT
Length of Visible Light 11h 31m
Length of Day
10h 31m
Tomorrow will be 2m 50s shorter.
Waxing Crescent, 4% of the Moon is Illuminated
Today
Waxing Crescent
Oct 30
First Quarter
Nov 6
Full
Nov 14
Last Quarter
Nov 22
New

Today's Extremes

State Highs State Lows

Community

WunderPhotos

Upload Photos

1,764,971 photos uploaded!

Nearby

Snow Depth

Station Depth Elevation
Reno Hill 0 in 8500 ft
Windy Peak 0 in 7900 ft
Townsend Creek 0 in 8700 ft
Gunsight Pass 1 in 9820 ft
Big Sandy Opening 1 in 9080 ft

Earthquake Activity

City Distance Mag. Time & Date
No recent earthquake activity has been reported nearby.
Minimum magnitude displayed is 2.5.

Coastal Water Temperatures

Place Temperature
No Stations Reporting

Nearby Weather Stations